Time,TemperatureF,DewpointF,PressureIn,WindDirection,WindDirectionDegrees,WindSpeedMPH,WindSpeedGustMPH,Humidity,HourlyPrecipIn,Conditions,Clouds,dailyrainin,SoftwareType,DateUTC
2013-01-22 00:00:00,20.4,18.4,29.79,South,190,0.0,2.0,92,0.00,,,0.00,WUHU216DAVISVP2,2013-01-22 05:00:00,
2013-01-22 00:01:00,20.4,18.4,29.79,South,190,0.0,2.0,92,0.00,,,0.00,WUHU216DAVISVP2,2013-01-22 05:01:00,
2013-01-22 00:07:00,20.5,18.5,29.79,South,190,0.0,2.0,92,0.00,,,0.00,WUHU216DAVISVP2,2013-01-22 05:07:00,
2013-01-22 00:12:00,20.6,18.6,29.79,South,190,0.0,2.0,92,0.00,,,0.00,WUHU216DAVISVP2,2013-01-22 05:12:00,
2013-01-22 00:17:00,20.6,18.6,29.79,South,190,0.0,1.0,92,0.00,,,0.00,WUHU216DAVISVP2,2013-01-22 05:17:00,
2013-01-22 00:22:00,20.7,18.7,29.79,South,190,0.0,1.0,92,0.00,,,0.00,WUHU216DAVISVP2,2013-01-22 05:22:00,
2013-01-22 00:27:00,20.8,18.8,29.78,South,190,0.0,1.0,92,0.00,,,0.00,WUHU216DAVISVP2,2013-01-22 05:27:00,
2013-01-22 00:32:00,20.8,18.8,29.78,South,190,0.0,1.0,92,0.00,,,0.00,WUHU216DAVISVP2,2013-01-22 05:32:00,
2013-01-22 00:37:00,20.8,18.8,29.77,South,190,0.0,1.0,92,0.00,,,0.00,WUHU216DAVISVP2,2013-01-22 05:37:00,
2013-01-22 00:42:00,20.9,18.9,29.76,South,190,0.0,2.0,92,0.00,,,0.00,WUHU216DAVISVP2,2013-01-22 05:42:00,
2013-01-22 00:47:00,20.8,18.8,29.76,WSW,240,0.0,2.0,92,0.00,,,0.00,WUHU216DAVISVP2,2013-01-22 05:47:00,
2013-01-22 00:52:00,20.8,18.8,29.77,West,267,0.0,2.0,92,0.00,,,0.00,WUHU216DAVISVP2,2013-01-22 05:52:00,
2013-01-22 00:57:00,20.8,18.8,29.77,West,268,0.0,2.0,92,0.00,,,0.00,WUHU216DAVISVP2,2013-01-22 05:57:00,
2013-01-22 01:02:00,20.8,18.8,29.77,West,267,0.0,2.0,92,0.00,,,0.00,WUHU216DAVISVP2,2013-01-22 06:02:00,
2013-01-22 01:07:00,20.8,18.8,29.77,West,267,0.0,0.0,92,0.00,,,0.00,WUHU216DAVISVP2,2013-01-22 06:07:00,
2013-01-22 01:12:00,20.8,18.8,29.76,West,267,0.0,0.0,92,0.00,,,0.00,WUHU216DAVISVP2,2013-01-22 06:12:00,
2013-01-22 01:17:00,20.8,18.8,29.75,West,267,0.0,0.0,92,0.00,,,0.00,WUHU216DAVISVP2,2013-01-22 06:17:00,
2013-01-22 01:22:00,20.7,18.4,29.75,West,267,0.0,0.0,91,0.00,,,0.00,WUHU216DAVISVP2,2013-01-22 06:22:00,
2013-01-22 01:27:00,20.5,18.2,29.75,West,267,0.0,0.0,91,0.00,,,0.00,WUHU216DAVISVP2,2013-01-22 06:27:00,
2013-01-22 01:32:00,20.3,18.0,29.76,West,267,0.0,0.0,91,0.00,,,0.00,WUHU216DAVISVP2,2013-01-22 06:32:00,
2013-01-22 01:37:00,20.1,17.8,29.78,West,268,0.0,0.0,91,0.00,,,0.00,WUHU216DAVISVP2,2013-01-22 06:37:00,
2013-01-22 01:42:00,19.9,17.6,29.77,West,268,0.0,0.0,91,0.00,,,0.00,WUHU216DAVISVP2,2013-01-22 06:42:00,
2013-01-22 01:47:00,19.8,17.5,29.78,West,268,0.0,0.0,91,0.00,,,0.00,WUHU216DAVISVP2,2013-01-22 06:47:00,
2013-01-22 01:52:00,19.7,17.4,29.77,West,267,0.0,0.0,91,0.00,,,0.00,WUHU216DAVISVP2,2013-01-22 06:52:00,
2013-01-22 01:58:00,19.5,17.3,29.77,West,268,0.0,0.0,91,0.00,,,0.00,WUHU216DAVISVP2,2013-01-22 06:58:00,
2013-01-22 02:03:00,19.3,17.1,29.77,West,268,0.0,0.0,91,0.00,,,0.00,WUHU216DAVISVP2,2013-01-22 07:03:00,
2013-01-22 02:08:00,19.2,17.0,29.77,West,268,0.0,0.0,91,0.00,,,0.00,WUHU216DAVISVP2,2013-01-22 07:08:00,
2013-01-22 02:13:00,19.1,16.9,29.77,West,267,0.0,0.0,91,0.00,,,0.00,WUHU216DAVISVP2,2013-01-22 07:13:00,
2013-01-22 02:18:00,19.0,16.8,29.77,West,268,0.0,0.0,91,0.00,,,0.00,WUHU216DAVISVP2,2013-01-22 07:18:00,
2013-01-22 02:23:00,18.8,16.6,29.76,West,267,0.0,0.0,91,0.00,,,0.00,WUHU216DAVISVP2,2013-01-22 07:23:00,
2013-01-22 02:28:00,18.5,16.3,29.76,West,268,0.0,0.0,91,0.00,,,0.00,WUHU216DAVISVP2,2013-01-22 07:28:00,
2013-01-22 02:33:00,18.2,16.0,29.76,West,267,0.0,0.0,91,0.00,,,0.00,WUHU216DAVISVP2,2013-01-22 07:33:00,
2013-01-22 02:38:00,17.8,15.6,29.76,West,268,0.0,0.0,91,0.00,,,0.00,WUHU216DAVISVP2,2013-01-22 07:38:00,
2013-01-22 02:43:00,17.6,15.4,29.76,West,268,0.0,0.0,91,0.00,,,0.00,WUHU216DAVISVP2,2013-01-22 07:43:00,
2013-01-22 02:48:00,17.7,15.7,29.76,West,268,0.0,0.0,92,0.00,,,0.00,WUHU216DAVISVP2,2013-01-22 07:48:00,
2013-01-22 02:53:00,18.0,16.0,29.76,West,267,0.0,0.0,92,0.00,,,0.00,WUHU216DAVISVP2,2013-01-22 07:53:00,
2013-01-22 02:58:00,18.2,16.5,29.76,West,267,0.0,0.0,93,0.00,,,0.00,WUHU216DAVISVP2,2013-01-22 07:58:00,
2013-01-22 03:03:00,18.3,16.6,29.76,West,267,0.0,0.0,93,0.00,,,0.00,WUHU216DAVISVP2,2013-01-22 08:03:00,
2013-01-22 03:08:00,18.4,16.4,29.76,West,267,0.0,0.0,92,0.00,,,0.00,WUHU216DAVISVP2,2013-01-22 08:08:00,
2013-01-22 03:13:00,18.3,16.3,29.75,West,267,0.0,0.0,92,0.00,,,0.00,WUHU216DAVISVP2,2013-01-22 08:13:00,
2013-01-22 03:18:00,18.1,16.1,29.75,West,267,0.0,0.0,92,0.00,,,0.00,WUHU216DAVISVP2,2013-01-22 08:18:00,
2013-01-22 03:23:00,17.9,15.9,29.75,West,267,0.0,0.0,92,0.00,,,0.00,WUHU216DAVISVP2,2013-01-22 08:23:00,
2013-01-22 03:28:00,17.6,15.6,29.75,West,267,0.0,0.0,92,0.00,,,0.00,WUHU216DAVISVP2,2013-01-22 08:28:00,
2013-01-22 03:33:00,17.3,15.3,29.75,West,267,0.0,0.0,92,0.00,,,0.00,WUHU216DAVISVP2,2013-01-22 08:33:00,
2013-01-22 03:38:00,17.2,15.2,29.75,West,268,0.0,0.0,92,0.00,,,0.00,WUHU216DAVISVP2,2013-01-22 08:38:00,
2013-01-22 03:43:00,17.1,14.9,29.75,West,268,0.0,0.0,91,0.00,,,0.00,WUHU216DAVISVP2,2013-01-22 08:43:00,
2013-01-22 03:48:00,16.9,14.7,29.75,West,267,0.0,0.0,91,0.00,,,0.00,WUHU216DAVISVP2,2013-01-22 08:48:00,
2013-01-22 03:53:00,16.7,14.5,29.76,West,267,0.0,0.0,91,0.00,,,0.00,WUHU216DAVISVP2,2013-01-22 08:53:00,
2013-01-22 03:58:00,16.6,14.4,29.75,West,267,0.0,0.0,91,0.00,,,0.00,WUHU216DAVISVP2,2013-01-22 08:58:00,
2013-01-22 04:03:00,16.4,14.2,29.75,West,267,0.0,0.0,91,0.00,,,0.00,WUHU216DAVISVP2,2013-01-22 09:03:00,
2013-01-22 04:08:00,16.2,14.0,29.75,West,268,0.0,0.0,91,0.00,,,0.00,WUHU216DAVISVP2,2013-01-22 09:08:00,
2013-01-22 04:13:00,16.1,13.9,29.76,West,268,0.0,0.0,91,0.00,,,0.00,WUHU216DAVISVP2,2013-01-22 09:13:00,
2013-01-22 04:18:00,15.9,13.7,29.76,West,267,0.0,0.0,91,0.00,,,0.00,WUHU216DAVISVP2,2013-01-22 09:18:00,
2013-01-22 04:23:00,15.8,13.6,29.76,West,268,0.0,0.0,91,0.00,,,0.00,WUHU216DAVISVP2,2013-01-22 09:23:00,
2013-01-22 04:28:00,15.7,13.7,29.75,West,267,0.0,0.0,92,0.00,,,0.00,WUHU216DAVISVP2,2013-01-22 09:28:00,
2013-01-22 04:33:00,15.8,13.8,29.75,West,267,0.0,0.0,92,0.00,,,0.00,WUHU216DAVISVP2,2013-01-22 09:33:00,
2013-01-22 04:38:00,15.9,13.9,29.75,West,268,0.0,0.0,92,0.00,,,0.00,WUHU216DAVISVP2,2013-01-22 09:38:00,
2013-01-22 04:43:00,16.1,14.1,29.75,West,268,0.0,0.0,92,0.00,,,0.00,WUHU216DAVISVP2,2013-01-22 09:43:00,
2013-01-22 04:48:00,16.2,14.2,29.75,West,268,0.0,0.0,92,0.00,,,0.00,WUHU216DAVISVP2,2013-01-22 09:48:00,
2013-01-22 04:53:00,16.2,14.2,29.75,West,267,0.0,0.0,92,0.00,,,0.00,WUHU216DAVISVP2,2013-01-22 09:53:00,
2013-01-22 04:58:00,16.4,14.7,29.75,West,268,0.0,0.0,93,0.00,,,0.00,WUHU216DAVISVP2,2013-01-22 09:58:00,
2013-01-22 05:03:00,16.6,14.9,29.75,West,267,0.0,0.0,93,0.00,,,0.00,WUHU216DAVISVP2,2013-01-22 10:03:00,
2013-01-22 05:08:00,16.7,15.0,29.75,West,267,0.0,0.0,93,0.00,,,0.00,WUHU216DAVISVP2,2013-01-22 10:08:00,
2013-01-22 05:13:00,16.7,15.0,29.75,West,268,0.0,0.0,93,0.00,,,0.00,WUHU216DAVISVP2,2013-01-22 10:13:00,
2013-01-22 05:18:00,16.8,15.1,29.76,West,267,0.0,0.0,93,0.00,,,0.00,WUHU216DAVISVP2,2013-01-22 10:18:00,
2013-01-22 05:23:00,16.8,15.1,29.76,West,267,0.0,0.0,93,0.00,,,0.00,WUHU216DAVISVP2,2013-01-22 10:23:00,
2013-01-22 05:28:00,16.8,14.8,29.76,West,267,0.0,0.0,92,0.00,,,0.00,WUHU216DAVISVP2,2013-01-22 10:28:00,
2013-01-22 05:33:00,16.8,14.8,29.76,West,267,0.0,0.0,92,0.00,,,0.00,WUHU216DAVISVP2,2013-01-22 10:33:00,
2013-01-22 05:38:00,16.9,14.9,29.76,West,267,0.0,0.0,92,0.00,,,0.00,WUHU216DAVISVP2,2013-01-22 10:38:00,
2013-01-22 05:43:00,17.0,15.3,29.76,West,267,0.0,0.0,93,0.00,,,0.00,WUHU216DAVISVP2,2013-01-22 10:43:00,
2013-01-22 05:48:00,17.2,15.5,29.77,West,268,0.0,0.0,93,0.00,,,0.00,WUHU216DAVISVP2,2013-01-22 10:48:00,
2013-01-22 05:53:00,17.3,15.6,29.77,West,268,0.0,0.0,93,0.00,,,0.00,WUHU216DAVISVP2,2013-01-22 10:53:00,
2013-01-22 05:58:00,17.3,15.6,29.77,West,268,0.0,0.0,93,0.00,,,0.00,WUHU216DAVISVP2,2013-01-22 10:58:00,
2013-01-22 06:03:00,17.3,15.4,29.77,West,268,0.0,0.0,92,0.00,,,0.00,WUHU216DAVISVP2,2013-01-22 11:03:00,
2013-01-22 06:08:00,17.1,15.2,29.77,West,267,0.0,0.0,92,0.00,,,0.00,WUHU216DAVISVP2,2013-01-22 11:08:00,
2013-01-22 06:13:00,17.1,15.1,29.77,West,267,0.0,0.0,92,0.00,,,0.00,WUHU216DAVISVP2,2013-01-22 11:13:00,
2013-01-22 06:18:00,16.9,14.9,29.77,West,268,0.0,0.0,92,0.00,,,0.00,WUHU216DAVISVP2,2013-01-22 11:18:00,
2013-01-22 06:23:00,16.8,14.8,29.78,West,267,0.0,0.0,92,0.00,,,0.00,WUHU216DAVISVP2,2013-01-22 11:23:00,
2013-01-22 06:28:00,16.9,15.0,29.78,West,271,1.3,2.0,92,0.00,,,0.00,WUHU216DAVISVP2,2013-01-22 11:28:00,
2013-01-22 06:33:00,17.3,15.6,29.78,West,278,1.6,3.0,93,0.00,,,0.00,WUHU216DAVISVP2,2013-01-22 11:33:00,
2013-01-22 06:38:00,17.7,15.7,29.78,West,279,0.0,3.0,92,0.00,,,0.00,WUHU216DAVISVP2,2013-01-22 11:38:00,
2013-01-22 06:43:00,17.9,15.9,29.78,WNW,290,1.4,3.0,92,0.00,,,0.00,WUHU216DAVISVP2,2013-01-22 11:43:00,
2013-01-22 06:48:00,17.9,15.4,29.78,WNW,296,1.0,3.0,90,0.00,,,0.00,WUHU216DAVISVP2,2013-01-22 11:48:00,
2013-01-22 06:53:00,17.8,15.3,29.78,WNW,296,0.0,3.0,90,0.00,,,0.00,WUHU216DAVISVP2,2013-01-22 11:53:00,
2013-01-22 06:58:00,17.6,15.1,29.79,WNW,296,0.0,3.0,90,0.00,,,0.00,WUHU216DAVISVP2,2013-01-22 11:58:00,
2013-01-22 07:03:00,17.6,15.2,29.79,WNW,291,1.3,2.0,90,0.00,,,0.00,WUHU216DAVISVP2,2013-01-22 12:03:00,
2013-01-22 07:08:00,17.8,15.1,29.79,WNW,290,1.4,3.0,89,0.00,,,0.00,WUHU216DAVISVP2,2013-01-22 12:08:00,
2013-01-22 07:13:00,18.2,15.2,29.79,WNW,288,2.0,3.0,88,0.00,,,0.00,WUHU216DAVISVP2,2013-01-22 12:13:00,
2013-01-22 07:18:00,18.5,15.0,29.79,WNW,292,1.1,3.0,86,0.00,,,0.00,WUHU216DAVISVP2,2013-01-22 12:18:00,
2013-01-22 07:23:00,18.7,14.9,29.80,WNW,291,2.0,4.0,85,0.00,,,0.00,WUHU216DAVISVP2,2013-01-22 12:23:00,
2013-01-22 07:28:00,18.9,14.8,29.80,West,275,3.0,5.0,84,0.00,,,0.00,WUHU216DAVISVP2,2013-01-22 12:28:00,
2013-01-22 07:33:00,19.0,14.4,29.81,WNW,291,4.4,10.0,82,0.00,,,0.00,WUHU216DAVISVP2,2013-01-22 12:33:00,
2013-01-22 07:38:00,19.1,14.2,29.81,WNW,298,5.1,12.0,81,0.00,,,0.00,WUHU216DAVISVP2,2013-01-22 12:38:00,
2013-01-22 07:43:00,19.2,14.0,29.80,WNW,293,2.1,12.0,80,0.00,,,0.00,WUHU216DAVISVP2,2013-01-22 12:43:00,
2013-01-22 07:48:00,19.2,13.8,29.81,NW,306,6.0,12.0,79,0.00,,,0.00,WUHU216DAVISVP2,2013-01-22 12:48:00,
2013-01-22 07:53:00,19.1,13.4,29.81,WNW,302,4.0,12.0,78,0.00,,,0.00,WUHU216DAVISVP2,2013-01-22 12:53:00,
2013-01-22 07:58:00,19.1,13.4,29.81,NW,304,2.5,11.0,78,0.00,,,0.00,WUHU216DAVISVP2,2013-01-22 12:58:00,
2013-01-22 08:04:00,19.1,13.1,29.81,WNW,300,5.0,11.0,77,0.00,,,0.00,WUHU216DAVISVP2,2013-01-22 13:04:00,
2013-01-22 08:09:00,19.1,13.1,29.81,NW,319,6.0,11.0,77,0.00,,,0.00,WUHU216DAVISVP2,2013-01-22 13:09:00,
2013-01-22 08:14:00,19.1,13.1,29.82,WNW,298,7.0,11.0,77,0.00,,,0.00,WUHU216DAVISVP2,2013-01-22 13:14:00,
2013-01-22 08:19:00,19.2,12.9,29.82,NW,306,6.0,11.0,76,0.00,,,0.00,WUHU216DAVISVP2,2013-01-22 13:19:00,
2013-01-22 08:24:00,19.4,12.8,29.82,WNW,293,4.1,10.0,75,0.00,,,0.00,WUHU216DAVISVP2,2013-01-22 13:24:00,
2013-01-22 08:29:00,19.5,12.6,29.83,WNW,294,7.1,11.0,74,0.00,,,0.00,WUHU216DAVISVP2,2013-01-22 13:29:00,
2013-01-22 08:34:00,19.6,12.7,29.82,WNW,288,8.0,11.0,74,0.00,,,0.00,WUHU216DAVISVP2,2013-01-22 13:34:00,
2013-01-22 08:39:00,19.7,12.8,29.83,NW,313,3.7,11.0,74,0.00,,,0.00,WUHU216DAVISVP2,2013-01-22 13:39:00,
2013-01-22 08:44:00,19.9,12.4,29.83,WNW,297,7.0,14.0,72,0.00,,,0.00,WUHU216DAVISVP2,2013-01-22 13:44:00,
2013-01-22 08:49:00,19.9,12.1,29.83,WNW,303,6.7,15.0,71,0.00,,,0.00,WUHU216DAVISVP2,2013-01-22 13:49:00,
2013-01-22 08:54:00,20.0,11.8,29.83,WNW,286,4.4,18.0,70,0.00,,,0.00,WUHU216DAVISVP2,2013-01-22 13:54:00,
2013-01-22 08:59:00,20.2,11.3,29.83,WNW,300,11.4,18.0,68,0.00,,,0.00,WUHU216DAVISVP2,2013-01-22 13:59:00,
2013-01-22 09:04:00,20.2,11.0,29.83,WNW,301,12.0,18.0,67,0.00,,,0.00,WUHU216DAVISVP2,2013-01-22 14:04:00,
2013-01-22 09:09:00,20.4,11.2,29.83,NW,305,6.7,18.0,67,0.00,,,0.00,WUHU216DAVISVP2,2013-01-22 14:09:00,
2013-01-22 09:14:00,20.5,11.3,29.83,NW,307,5.1,18.0,67,0.00,,,0.00,WUHU216DAVISVP2,2013-01-22 14:14:00,
2013-01-22 09:19:00,20.6,11.4,29.83,WNW,296,4.1,18.0,67,0.00,,,0.00,WUHU216DAVISVP2,2013-01-22 14:19:00,
2013-01-22 09:24:00,20.7,10.8,29.83,WNW,301,10.1,14.0,65,0.00,,,0.00,WUHU216DAVISVP2,2013-01-22 14:24:00,
2013-01-22 09:29:00,20.6,11.1,29.83,WNW,298,6.4,15.0,66,0.00,,,0.00,WUHU216DAVISVP2,2013-01-22 14:29:00,
2013-01-22 09:34:00,20.7,10.4,29.84,WNW,300,9.0,16.0,64,0.00,,,0.00,WUHU216DAVISVP2,2013-01-22 14:34:00,
2013-01-22 09:39:00,20.8,10.2,29.84,NW,310,8.7,16.0,63,0.00,,,0.00,WUHU216DAVISVP2,2013-01-22 14:39:00,
2013-01-22 09:44:00,20.9,10.7,29.84,West,263,14.0,16.0,64,0.00,,,0.00,WUHU216DAVISVP2,2013-01-22 14:44:00,
2013-01-22 09:49:00,21.0,10.1,29.84,West,275,8.0,18.0,62,0.00,,,0.00,WUHU216DAVISVP2,2013-01-22 14:49:00,
2013-01-22 09:54:00,21.2,10.2,29.84,WNW,289,6.9,18.0,62,0.00,,,0.00,WUHU216DAVISVP2,2013-01-22 14:54:00,
2013-01-22 09:59:00,21.3,10.0,29.84,NW,305,6.4,18.0,61,0.00,,,0.00,WUHU216DAVISVP2,2013-01-22 14:59:00,
2013-01-22 10:04:00,21.3,10.3,29.84,WNW,298,5.3,18.0,62,0.00,,,0.00,WUHU216DAVISVP2,2013-01-22 15:04:00,
2013-01-22 10:09:00,21.3,10.0,29.85,WNW,288,11.0,14.0,61,0.00,,,0.00,WUHU216DAVISVP2,2013-01-22 15:09:00,
2013-01-22 10:14:00,21.1,10.2,29.85,NNW,328,6.0,14.0,62,0.00,,,0.00,WUHU216DAVISVP2,2013-01-22 15:14:00,
2013-01-22 10:19:00,21.0,9.7,29.85,NW,306,9.0,18.0,61,0.00,,,0.00,WUHU216DAVISVP2,2013-01-22 15:19:00,
2013-01-22 10:24:00,20.6,8.9,29.85,NW,304,9.5,19.0,60,0.00,,,0.00,WUHU216DAVISVP2,2013-01-22 15:24:00,
2013-01-22 10:29:00,20.6,8.6,29.86,WNW,302,8.0,19.0,59,0.00,,,0.00,WUHU216DAVISVP2,2013-01-22 15:29:00,
2013-01-22 10:34:00,20.8,8.7,29.85,WNW,297,10.8,19.0,59,0.00,,,0.00,WUHU216DAVISVP2,2013-01-22 15:34:00,
2013-01-22 10:39:00,21.2,8.7,29.85,WNW,298,9.6,19.0,58,0.00,,,0.00,WUHU216DAVISVP2,2013-01-22 15:39:00,
2013-01-22 10:44:00,21.2,8.3,29.85,WNW,299,10.6,21.0,57,0.00,,,0.00,WUHU216DAVISVP2,2013-01-22 15:44:00,
2013-01-22 10:49:00,21.5,8.6,29.85,NW,307,13.2,25.0,57,0.00,,,0.00,WUHU216DAVISVP2,2013-01-22 15:49:00,
2013-01-22 10:54:00,21.7,8.4,29.85,WNW,295,9.0,25.0,56,0.00,,,0.00,WUHU216DAVISVP2,2013-01-22 15:54:00,
2013-01-22 10:59:00,22.1,9.2,29.85,WNW,286,9.0,25.0,57,0.00,,,0.00,WUHU216DAVISVP2,2013-01-22 15:59:00,
2013-01-22 11:04:00,22.3,9.4,29.85,NW,321,12.0,25.0,57,0.00,,,0.00,WUHU216DAVISVP2,2013-01-22 16:04:00,
2013-01-22 11:09:00,22.0,9.1,29.85,WNW,287,9.0,18.0,57,0.00,,,0.00,WUHU216DAVISVP2,2013-01-22 16:09:00,
2013-01-22 11:14:00,21.2,8.3,29.85,West,278,11.0,18.0,57,0.00,,,0.00,WUHU216DAVISVP2,2013-01-22 16:14:00,
2013-01-22 11:19:00,20.7,7.9,29.84,West,271,6.2,16.0,57,0.00,,,0.00,WUHU216DAVISVP2,2013-01-22 16:19:00,
2013-01-22 11:24:00,20.8,8.4,29.84,WNW,293,7.9,16.0,58,0.00,,,0.00,WUHU216DAVISVP2,2013-01-22 16:24:00,
2013-01-22 11:29:00,20.8,8.4,29.84,WNW,282,10.0,16.0,58,0.00,,,0.00,WUHU216DAVISVP2,2013-01-22 16:29:00,
2013-01-22 11:34:00,21.1,8.6,29.84,NW,304,9.1,16.0,58,0.00,,,0.00,WUHU216DAVISVP2,2013-01-22 16:34:00,
2013-01-22 11:39:00,21.1,7.8,29.84,WSW,245,8.0,16.0,56,0.00,,,0.00,WUHU216DAVISVP2,2013-01-22 16:39:00,
2013-01-22 11:44:00,21.3,8.0,29.84,West,274,9.8,18.0,56,0.00,,,0.00,WUHU216DAVISVP2,2013-01-22 16:44:00,
2013-01-22 11:49:00,21.2,7.5,29.84,SW,223,9.0,18.0,55,0.00,,,0.00,WUHU216DAVISVP2,2013-01-22 16:49:00,
2013-01-22 11:54:00,21.2,7.9,29.84,West,275,8.0,18.0,56,0.00,,,0.00,WUHU216DAVISVP2,2013-01-22 16:54:00,
2013-01-22 11:59:00,21.4,7.7,29.84,West,269,6.8,18.0,55,0.00,,,0.00,WUHU216DAVISVP2,2013-01-22 16:59:00,
2013-01-22 12:04:00,21.8,7.7,29.84,WNW,299,8.6,18.0,54,0.00,,,0.00,WUHU216DAVISVP2,2013-01-22 17:04:00,
2013-01-22 12:09:00,21.6,7.1,29.84,West,277,8.1,18.0,53,0.00,,,0.00,WUHU216DAVISVP2,2013-01-22 17:09:00,
2013-01-22 12:14:00,21.2,6.3,29.84,West,271,11.0,17.0,52,0.00,,,0.00,WUHU216DAVISVP2,2013-01-22 17:14:00,
2013-01-22 12:19:00,21.1,6.6,29.84,NW,305,10.0,17.0,53,0.00,,,0.00,WUHU216DAVISVP2,2013-01-22 17:19:00,
2013-01-22 12:24:00,21.3,6.8,29.83,West,261,6.0,17.0,53,0.00,,,0.00,WUHU216DAVISVP2,2013-01-22 17:24:00,
2013-01-22 12:29:00,21.7,7.6,29.83,WSW,258,11.0,17.0,54,0.00,,,0.00,WUHU216DAVISVP2,2013-01-22 17:29:00,
2013-01-22 12:34:00,21.8,6.4,29.84,West,272,10.6,18.0,51,0.00,,,0.00,WUHU216DAVISVP2,2013-01-22 17:34:00,
2013-01-22 12:39:00,21.5,6.1,29.84,West,277,8.1,19.0,51,0.00,,,0.00,WUHU216DAVISVP2,2013-01-22 17:39:00,
2013-01-22 12:44:00,21.5,6.1,29.84,WNW,303,17.0,19.0,51,0.00,,,0.00,WUHU216DAVISVP2,2013-01-22 17:44:00,
2013-01-22 12:49:00,21.0,6.1,29.84,WNW,284,6.6,19.0,52,0.00,,,0.00,WUHU216DAVISVP2,2013-01-22 17:49:00,
2013-01-22 12:54:00,21.0,5.2,29.84,NW,305,9.5,18.0,50,0.00,,,0.00,WUHU216DAVISVP2,2013-01-22 17:54:00,
2013-01-22 12:59:00,21.5,5.7,29.84,NW,304,12.0,18.0,50,0.00,,,0.00,WUHU216DAVISVP2,2013-01-22 17:59:00,
2013-01-22 13:04:00,21.4,5.1,29.84,WNW,295,9.7,20.0,49,0.00,,,0.00,WUHU216DAVISVP2,2013-01-22 18:04:00,
2013-01-22 13:09:00,21.3,5.0,29.84,WNW,302,8.0,20.0,49,0.00,,,0.00,WUHU216DAVISVP2,2013-01-22 18:09:00,
2013-01-22 13:14:00,21.2,4.9,29.84,WNW,293,9.5,20.0,49,0.00,,,0.00,WUHU216DAVISVP2,2013-01-22 18:14:00,
2013-01-22 13:19:00,21.1,4.4,29.84,WNW,282,11.5,20.0,48,0.00,,,0.00,WUHU216DAVISVP2,2013-01-22 18:19:00,
2013-01-22 13:24:00,21.0,4.7,29.84,NW,304,11.0,17.0,49,0.00,,,0.00,WUHU216DAVISVP2,2013-01-22 18:24:00,
2013-01-22 13:29:00,21.2,4.5,29.84,WNW,286,9.3,17.0,48,0.00,,,0.00,WUHU216DAVISVP2,2013-01-22 18:29:00,
2013-01-22 13:34:00,21.2,5.4,29.84,NW,304,4.7,17.0,50,0.00,,,0.00,WUHU216DAVISVP2,2013-01-22 18:34:00,
2013-01-22 13:39:00,21.4,6.0,29.85,WNW,297,6.3,17.0,51,0.00,,,0.00,WUHU216DAVISVP2,2013-01-22 18:39:00,
2013-01-22 13:44:00,21.2,4.9,29.85,West,278,6.4,15.0,49,0.00,,,0.00,WUHU216DAVISVP2,2013-01-22 18:44:00,
2013-01-22 13:49:00,21.1,4.4,29.85,WNW,297,8.1,17.0,48,0.00,,,0.00,WUHU216DAVISVP2,2013-01-22 18:49:00,
2013-01-22 13:54:00,21.6,4.4,29.85,WNW,302,6.9,17.0,47,0.00,,,0.00,WUHU216DAVISVP2,2013-01-22 18:54:00,
2013-01-22 13:59:00,22.0,4.2,29.85,West,278,8.0,17.0,46,0.00,,,0.00,WUHU216DAVISVP2,2013-01-22 18:59:00,
2013-01-22 14:04:00,22.5,5.2,29.85,NW,321,6.0,16.0,47,0.00,,,0.00,WUHU216DAVISVP2,2013-01-22 19:04:00,
2013-01-22 14:09:00,22.9,7.0,29.85,WSW,257,11.0,18.0,50,0.00,,,0.00,WUHU216DAVISVP2,2013-01-22 19:09:00,
2013-01-22 14:14:00,22.4,4.6,29.86,WSW,238,9.0,18.0,46,0.00,,,0.00,WUHU216DAVISVP2,2013-01-22 19:14:00,
2013-01-22 14:19:00,22.0,4.3,29.85,WNW,291,7.9,28.0,46,0.00,,,0.00,WUHU216DAVISVP2,2013-01-22 19:19:00,
2013-01-22 14:24:00,22.0,3.4,29.86,NW,317,13.0,28.0,44,0.00,,,0.00,WUHU216DAVISVP2,2013-01-22 19:24:00,
2013-01-22 14:29:00,21.6,2.5,29.87,WNW,285,9.9,28.0,43,0.00,,,0.00,WUHU216DAVISVP2,2013-01-22 19:29:00,
2013-01-22 14:34:00,21.7,2.6,29.87,West,279,10.0,18.0,43,0.00,,,0.00,WUHU216DAVISVP2,2013-01-22 19:34:00,
2013-01-22 14:39:00,21.7,2.5,29.87,SW,221,9.0,18.0,43,0.00,,,0.00,WUHU216DAVISVP2,2013-01-22 19:39:00,
2013-01-22 14:44:00,21.6,2.9,29.87,WNW,292,11.0,23.0,44,0.00,,,0.00,WUHU216DAVISVP2,2013-01-22 19:44:00,
2013-01-22 14:49:00,21.5,2.3,29.87,West,273,10.0,23.0,43,0.00,,,0.00,WUHU216DAVISVP2,2013-01-22 19:49:00,
2013-01-22 14:54:00,21.5,1.9,29.87,WSW,256,12.0,23.0,42,0.00,,,0.00,WUHU216DAVISVP2,2013-01-22 19:54:00,
2013-01-22 14:59:00,21.5,1.2,29.88,WSW,258,7.9,23.0,41,0.00,,,0.00,WUHU216DAVISVP2,2013-01-22 19:59:00,
2013-01-22 15:04:00,21.4,1.8,29.89,WNW,286,9.2,19.0,42,0.00,,,0.00,WUHU216DAVISVP2,2013-01-22 20:04:00,
2013-01-22 15:09:00,21.2,1.6,29.89,West,281,10.9,19.0,42,0.00,,,0.00,WUHU216DAVISVP2,2013-01-22 20:09:00,
2013-01-22 15:14:00,20.9,1.9,29.89,West,259,12.0,19.0,43,0.00,,,0.00,WUHU216DAVISVP2,2013-01-22 20:14:00,
2013-01-22 15:19:00,20.8,2.8,29.89,WNW,285,8.1,19.0,45,0.00,,,0.00,WUHU216DAVISVP2,2013-01-22 20:19:00,
2013-01-22 15:24:00,20.3,2.2,29.89,West,270,8.4,17.0,45,0.00,,,0.00,WUHU216DAVISVP2,2013-01-22 20:24:00,
2013-01-22 15:29:00,20.0,2.4,29.89,WNW,295,10.1,17.0,46,0.00,,,0.00,WUHU216DAVISVP2,2013-01-22 20:29:00,
2013-01-22 15:34:00,19.9,2.4,29.90,WNW,296,5.7,16.0,46,0.00,,,0.00,WUHU216DAVISVP2,2013-01-22 20:34:00,
2013-01-22 15:39:00,19.9,2.3,29.90,WNW,292,10.1,16.0,46,0.00,,,0.00,WUHU216DAVISVP2,2013-01-22 20:39:00,
2013-01-22 15:44:00,19.9,1.9,29.90,WNW,286,9.1,16.0,45,0.00,,,0.00,WUHU216DAVISVP2,2013-01-22 20:44:00,
2013-01-22 15:49:00,19.9,1.8,29.90,West,280,7.1,16.0,45,0.00,,,0.00,WUHU216DAVISVP2,2013-01-22 20:49:00,
2013-01-22 15:54:00,19.8,1.7,29.90,WNW,290,6.1,16.0,45,0.00,,,0.00,WUHU216DAVISVP2,2013-01-22 20:54:00,
2013-01-22 15:59:00,19.9,2.3,29.91,WNW,292,3.8,15.0,46,0.00,,,0.00,WUHU216DAVISVP2,2013-01-22 20:59:00,
2013-01-22 16:04:00,19.9,1.8,29.91,WNW,294,8.0,14.0,45,0.00,,,0.00,WUHU216DAVISVP2,2013-01-22 21:04:00,
2013-01-22 16:09:00,19.9,2.4,29.91,WNW,296,2.8,14.0,46,0.00,,,0.00,WUHU216DAVISVP2,2013-01-22 21:09:00,
2013-01-22 16:14:00,19.8,2.3,29.91,West,281,6.4,12.0,46,0.00,,,0.00,WUHU216DAVISVP2,2013-01-22 21:14:00,
2013-01-22 16:19:00,19.8,2.3,29.92,West,277,7.0,12.0,46,0.00,,,0.00,WUHU216DAVISVP2,2013-01-22 21:19:00,
2013-01-22 16:24:00,19.8,2.3,29.92,WNW,288,5.0,13.0,46,0.00,,,0.00,WUHU216DAVISVP2,2013-01-22 21:24:00,
2013-01-22 16:29:00,19.7,1.8,29.92,West,263,7.9,14.0,45,0.00,,,0.00,WUHU216DAVISVP2,2013-01-22 21:29:00,
2013-01-22 16:31:00,19.6,1.1,29.92,NW,311,11.0,14.0,44,0.00,,,0.00,WUHU216DAVISVP2,2013-01-22 21:31:00,
2013-01-22 16:36:00,19.5,1.1,29.92,NW,304,11.0,14.0,44,0.00,,,0.00,WUHU216DAVISVP2,2013-01-22 21:36:00,
2013-01-22 16:42:00,19.2,0.3,29.92,West,261,6.2,14.0,43,0.00,,,0.00,WUHU216DAVISVP2,2013-01-22 21:42:00,
2013-01-22 16:47:00,18.9,-0.1,29.93,WNW,282,6.9,14.0,43,0.00,,,0.00,WUHU216DAVISVP2,2013-01-22 21:47:00,
2013-01-22 16:52:00,18.8,-0.2,29.93,WSW,241,6.0,14.0,43,0.00,,,0.00,WUHU216DAVISVP2,2013-01-22 21:52:00,
2013-01-22 16:57:00,18.6,1.1,29.93,WNW,290,7.1,14.0,46,0.00,,,0.00,WUHU216DAVISVP2,2013-01-22 21:57:00,
2013-01-22 17:02:00,18.4,1.4,29.93,WNW,284,13.0,14.0,47,0.00,,,0.00,WUHU216DAVISVP2,2013-01-22 22:02:00,
2013-01-22 17:07:00,18.3,1.4,29.94,WNW,288,5.9,14.0,47,0.00,,,0.00,WUHU216DAVISVP2,2013-01-22 22:07:00,
2013-01-22 17:12:00,18.2,1.3,29.94,WNW,289,3.6,14.0,47,0.00,,,0.00,WUHU216DAVISVP2,2013-01-22 22:12:00,
2013-01-22 17:17:00,18.1,0.7,29.94,WNW,291,6.5,18.0,46,0.00,,,0.00,WUHU216DAVISVP2,2013-01-22 22:17:00,
2013-01-22 17:22:00,18.0,0.6,29.95,WNW,291,8.2,18.0,46,0.00,,,0.00,WUHU216DAVISVP2,2013-01-22 22:22:00,
2013-01-22 17:27:00,17.8,0.4,29.95,West,278,9.0,18.0,46,0.00,,,0.00,WUHU216DAVISVP2,2013-01-22 22:27:00,
2013-01-22 17:32:00,17.7,0.3,29.95,SW,232,7.0,18.0,46,0.00,,,0.00,WUHU216DAVISVP2,2013-01-22 22:32:00,
2013-01-22 17:37:00,17.5,0.6,29.96,WNW,286,7.6,16.0,47,0.00,,,0.00,WUHU216DAVISVP2,2013-01-22 22:37:00,
2013-01-22 17:42:00,17.4,0.5,29.96,West,271,5.0,16.0,47,0.00,,,0.00,WUHU216DAVISVP2,2013-01-22 22:42:00,
2013-01-22 17:47:00,17.3,0.9,29.96,WSW,257,4.4,12.0,48,0.00,,,0.00,WUHU216DAVISVP2,2013-01-22 22:47:00,
2013-01-22 17:52:00,17.1,1.1,29.96,WNW,296,3.0,11.0,49,0.00,,,0.00,WUHU216DAVISVP2,2013-01-22 22:52:00,
2013-01-22 17:57:00,17.0,1.5,29.97,West,280,3.4,9.0,50,0.00,,,0.00,WUHU216DAVISVP2,2013-01-22 22:57:00,
2013-01-22 18:02:00,16.9,1.4,29.97,WNW,291,8.3,12.0,50,0.00,,,0.00,WUHU216DAVISVP2,2013-01-22 23:02:00,
2013-01-22 18:07:00,16.9,0.9,29.97,West,279,7.4,13.0,49,0.00,,,0.00,WUHU216DAVISVP2,2013-01-22 23:07:00,
2013-01-22 18:12:00,16.8,1.3,29.98,WNW,283,6.0,13.0,50,0.00,,,0.00,WUHU216DAVISVP2,2013-01-22 23:12:00,
2013-01-22 18:17:00,16.8,1.3,29.98,WNW,286,6.0,13.0,50,0.00,,,0.00,WUHU216DAVISVP2,2013-01-22 23:17:00,
2013-01-22 18:22:00,16.5,1.5,29.98,WNW,290,4.0,13.0,51,0.00,,,0.00,WUHU216DAVISVP2,2013-01-22 23:22:00,
2013-01-22 18:27:00,16.5,1.5,29.99,West,276,5.0,12.0,51,0.00,,,0.00,WUHU216DAVISVP2,2013-01-22 23:27:00,
2013-01-22 18:32:00,16.4,1.8,29.99,WNW,297,2.3,12.0,52,0.00,,,0.00,WUHU216DAVISVP2,2013-01-22 23:32:00,
2013-01-22 18:37:00,16.2,1.6,29.99,WNW,282,9.0,11.0,52,0.00,,,0.00,WUHU216DAVISVP2,2013-01-22 23:37:00,
2013-01-22 18:42:00,16.2,2.0,29.99,WNW,292,3.0,11.0,53,0.00,,,0.00,WUHU216DAVISVP2,2013-01-22 23:42:00,
2013-01-22 18:47:00,16.1,1.9,30.00,West,276,6.0,10.0,53,0.00,,,0.00,WUHU216DAVISVP2,2013-01-22 23:47:00,
2013-01-22 18:52:00,16.0,2.3,30.00,WNW,298,3.9,10.0,54,0.00,,,0.00,WUHU216DAVISVP2,2013-01-22 23:52:00,
2013-01-22 18:57:00,15.9,2.2,30.00,WNW,294,3.3,8.0,54,0.00,,,0.00,WUHU216DAVISVP2,2013-01-22 23:57:00,
2013-01-22 19:02:00,15.8,1.7,30.00,WNW,293,6.0,9.0,53,0.00,,,0.00,WUHU216DAVISVP2,2013-01-23 00:02:00,
2013-01-22 19:07:00,15.8,2.1,30.01,NW,304,3.9,9.0,54,0.00,,,0.00,WUHU216DAVISVP2,2013-01-23 00:07:00,
2013-01-22 19:12:00,15.8,1.7,30.01,WNW,296,3.9,9.0,53,0.00,,,0.00,WUHU216DAVISVP2,2013-01-23 00:12:00,
2013-01-22 19:17:00,15.7,2.0,30.01,WNW,284,3.9,9.0,54,0.00,,,0.00,WUHU216DAVISVP2,2013-01-23 00:17:00,
2013-01-22 19:22:00,15.6,3.1,30.01,WNW,292,8.0,11.0,57,0.00,,,0.00,WUHU216DAVISVP2,2013-01-23 00:22:00,
2013-01-22 19:27:00,15.5,3.3,30.01,WNW,284,8.0,11.0,58,0.00,,,0.00,WUHU216DAVISVP2,2013-01-23 00:27:00,
2013-01-22 19:32:00,15.4,3.6,30.01,WNW,294,4.2,11.0,59,0.00,,,0.00,WUHU216DAVISVP2,2013-01-23 00:32:00,
2013-01-22 19:37:00,15.4,4.0,30.01,WNW,291,10.0,11.0,60,0.00,,,0.00,WUHU216DAVISVP2,2013-01-23 00:37:00,
2013-01-22 19:42:00,15.2,4.6,30.01,West,281,4.4,11.0,62,0.00,,,0.00,WUHU216DAVISVP2,2013-01-23 00:42:00,
2013-01-22 19:48:00,15.2,4.6,30.01,WNW,297,5.6,11.0,62,0.00,,,0.00,WUHU216DAVISVP2,2013-01-23 00:48:00,
2013-01-22 19:52:00,15.2,4.5,30.02,WNW,299,4.9,11.0,62,0.00,,,0.00,WUHU216DAVISVP2,2013-01-23 00:52:00,
2013-01-22 19:57:00,15.0,4.4,30.02,WNW,291,4.0,10.0,62,0.00,,,0.00,WUHU216DAVISVP2,2013-01-23 00:57:00,
2013-01-22 20:03:00,14.9,4.3,30.02,WNW,297,7.0,9.0,62,0.00,,,0.00,WUHU216DAVISVP2,2013-01-23 01:03:00,
2013-01-22 20:08:00,14.9,4.3,30.02,NW,311,2.2,9.0,62,0.00,,,0.00,WUHU216DAVISVP2,2013-01-23 01:08:00,
2013-01-22 20:13:00,14.7,4.4,30.02,NW,311,1.6,9.0,63,0.00,,,0.00,WUHU216DAVISVP2,2013-01-23 01:13:00,
2013-01-22 20:18:00,14.6,4.3,30.02,NW,307,8.0,12.0,63,0.00,,,0.00,WUHU216DAVISVP2,2013-01-23 01:18:00,
2013-01-22 20:23:00,14.7,4.1,30.02,WNW,296,5.0,12.0,62,0.00,,,0.00,WUHU216DAVISVP2,2013-01-23 01:23:00,
2013-01-22 20:28:00,14.8,4.2,30.03,WNW,294,3.5,12.0,62,0.00,,,0.00,WUHU216DAVISVP2,2013-01-23 01:28:00,
2013-01-22 20:33:00,14.6,3.9,30.03,WNW,296,5.2,12.0,62,0.00,,,0.00,WUHU216DAVISVP2,2013-01-23 01:33:00,
2013-01-22 20:38:00,14.6,3.9,30.03,WNW,297,4.1,10.0,62,0.00,,,0.00,WUHU216DAVISVP2,2013-01-23 01:38:00,
2013-01-22 20:43:00,14.6,4.3,30.02,WNW,299,3.0,9.0,63,0.00,,,0.00,WUHU216DAVISVP2,2013-01-23 01:43:00,
2013-01-22 20:48:00,14.6,4.3,30.03,WNW,296,4.0,9.0,63,0.00,,,0.00,WUHU216DAVISVP2,2013-01-23 01:48:00,
2013-01-22 20:53:00,14.6,4.3,30.03,WNW,298,4.6,9.0,63,0.00,,,0.00,WUHU216DAVISVP2,2013-01-23 01:53:00,
2013-01-22 20:58:00,14.5,4.6,30.02,WNW,296,4.2,9.0,64,0.00,,,0.00,WUHU216DAVISVP2,2013-01-23 01:58:00,
2013-01-22 21:03:00,14.3,4.4,30.02,WNW,299,5.3,9.0,64,0.00,,,0.00,WUHU216DAVISVP2,2013-01-23 02:03:00,
2013-01-22 21:08:00,14.2,4.6,30.02,WNW,290,2.3,9.0,65,0.00,,,0.00,WUHU216DAVISVP2,2013-01-23 02:08:00,
2013-01-22 21:13:00,14.1,4.5,30.03,WNW,290,1.5,9.0,65,0.00,,,0.00,WUHU216DAVISVP2,2013-01-23 02:13:00,
2013-01-22 21:18:00,13.9,4.3,30.03,WNW,297,2.6,9.0,65,0.00,,,0.00,WUHU216DAVISVP2,2013-01-23 02:18:00,
2013-01-22 21:23:00,13.7,4.5,30.04,WNW,297,2.1,6.0,66,0.00,,,0.00,WUHU216DAVISVP2,2013-01-23 02:23:00,
2013-01-22 21:28:00,13.7,4.1,30.03,WNW,298,2.4,6.0,65,0.00,,,0.00,WUHU216DAVISVP2,2013-01-23 02:28:00,
2013-01-22 21:33:00,13.7,4.1,30.03,WNW,296,2.0,5.0,65,0.00,,,0.00,WUHU216DAVISVP2,2013-01-23 02:33:00,
2013-01-22 21:38:00,13.6,4.1,30.04,WNW,296,2.0,5.0,65,0.00,,,0.00,WUHU216DAVISVP2,2013-01-23 02:38:00,
2013-01-22 21:43:00,13.6,3.7,30.04,West,268,2.7,6.0,64,0.00,,,0.00,WUHU216DAVISVP2,2013-01-23 02:43:00,
2013-01-22 21:48:00,13.6,3.4,30.04,WNW,299,3.9,10.0,63,0.00,,,0.00,WUHU216DAVISVP2,2013-01-23 02:48:00,
2013-01-22 21:53:00,13.5,2.6,30.04,WNW,296,5.5,10.0,61,0.00,,,0.00,WUHU216DAVISVP2,2013-01-23 02:53:00,
2013-01-22 21:58:00,13.4,2.1,30.05,WNW,297,2.5,10.0,60,0.00,,,0.00,WUHU216DAVISVP2,2013-01-23 02:58:00,
2013-01-22 22:03:00,13.3,2.0,30.05,WNW,298,2.0,10.0,60,0.00,,,0.00,WUHU216DAVISVP2,2013-01-23 03:03:00,
2013-01-22 22:08:00,13.1,1.8,30.05,WNW,292,2.6,10.0,60,0.00,,,0.00,WUHU216DAVISVP2,2013-01-23 03:08:00,
2013-01-22 22:13:00,13.0,1.4,30.05,WNW,285,6.0,9.0,59,0.00,,,0.00,WUHU216DAVISVP2,2013-01-23 03:13:00,
2013-01-22 22:18:00,12.9,1.3,30.05,WNW,290,1.9,9.0,59,0.00,,,0.00,WUHU216DAVISVP2,2013-01-23 03:18:00,
2013-01-22 22:23:00,12.7,1.1,30.05,WNW,295,2.1,7.0,59,0.00,,,0.00,WUHU216DAVISVP2,2013-01-23 03:23:00,
2013-01-22 22:28:00,12.6,1.4,30.05,WNW,294,2.4,7.0,60,0.00,,,0.00,WUHU216DAVISVP2,2013-01-23 03:28:00,
2013-01-22 22:33:00,12.5,1.3,30.05,WNW,291,2.3,5.0,60,0.00,,,0.00,WUHU216DAVISVP2,2013-01-23 03:33:00,
2013-01-22 22:38:00,12.4,0.8,30.05,WNW,291,3.4,6.0,59,0.00,,,0.00,WUHU216DAVISVP2,2013-01-23 03:38:00,
2013-01-22 22:43:00,12.4,0.8,30.05,WNW,294,3.0,6.0,59,0.00,,,0.00,WUHU216DAVISVP2,2013-01-23 03:43:00,
2013-01-22 22:48:00,12.4,0.8,30.06,WNW,294,1.2,6.0,59,0.00,,,0.00,WUHU216DAVISVP2,2013-01-23 03:48:00,
2013-01-22 22:53:00,12.2,0.6,30.06,WNW,294,3.0,6.0,59,0.00,,,0.00,WUHU216DAVISVP2,2013-01-23 03:53:00,
2013-01-22 22:58:00,12.1,0.9,30.06,WNW,294,1.2,6.0,60,0.00,,,0.00,WUHU216DAVISVP2,2013-01-23 03:58:00,
2013-01-22 23:03:00,11.9,0.7,30.06,WNW,294,1.3,5.0,60,0.00,,,0.00,WUHU216DAVISVP2,2013-01-23 04:03:00,
2013-01-22 23:10:00,11.8,1.7,30.06,WNW,294,1.1,3.0,63,0.00,,,0.00,WUHU216DAVISVP2,2013-01-23 04:10:00,
2013-01-22 23:15:00,11.7,1.9,30.06,WNW,294,1.0,3.0,64,0.00,,,0.00,WUHU216DAVISVP2,2013-01-23 04:15:00,
2013-01-22 23:20:00,11.6,2.5,30.06,WNW,283,1.9,4.0,66,0.00,,,0.00,WUHU216DAVISVP2,2013-01-23 04:20:00,
2013-01-22 23:25:00,11.5,2.7,30.06,West,274,2.1,4.0,67,0.00,,,0.00,WUHU216DAVISVP2,2013-01-23 04:25:00,
2013-01-22 23:30:00,11.4,2.9,30.06,WNW,288,1.4,5.0,68,0.00,,,0.00,WUHU216DAVISVP2,2013-01-23 04:30:00,
2013-01-22 23:35:00,11.3,2.8,30.06,West,277,2.7,6.0,68,0.00,,,0.00,WUHU216DAVISVP2,2013-01-23 04:35:00,
2013-01-22 23:40:00,11.2,3.1,30.06,West,280,3.0,6.0,69,0.00,,,0.00,WUHU216DAVISVP2,2013-01-23 04:40:00,
2013-01-22 23:45:00,11.1,3.0,30.06,WSW,243,4.0,6.0,69,0.00,,,0.00,WUHU216DAVISVP2,2013-01-23 04:45:00,
2013-01-22 23:50:00,11.0,2.9,30.06,West,275,5.0,6.0,69,0.00,,,0.00,WUHU216DAVISVP2,2013-01-23 04:50:00,
2013-01-22 23:55:00,11.0,2.5,30.05,West,278,2.0,6.0,68,0.00,,,0.00,WUHU216DAVISVP2,2013-01-23 04:55:00,